createdAt,value
2019-02-23T00:00:02.829Z,98940.22
2019-02-23T00:02:59.290Z,98943.97
2019-02-23T00:05:54.820Z,98943.55
2019-02-23T00:08:51.523Z,98943.08
2019-02-23T00:11:50.085Z,98951.11
2019-02-23T00:14:46.269Z,98952.62
2019-02-23T00:17:42.529Z,98956.63
2019-02-23T00:20:37.620Z,98948.61
2019-02-23T00:23:34.385Z,98946.97
2019-02-23T00:26:30.124Z,98954.47
2019-02-23T00:29:27.646Z,98960.88
2019-02-23T00:32:23.110Z,98964.31
2019-02-23T00:35:19.701Z,98969.31
2019-02-23T00:38:14.315Z,98966.04
2019-02-23T00:41:11.851Z,98964.78
2019-02-23T00:44:07.589Z,98968.09
2019-02-23T00:47:08.985Z,98973.84
2019-02-23T00:50:10.490Z,98973.39
2019-02-23T00:53:06.884Z,98968.54
2019-02-23T00:56:02.163Z,98964.42
2019-02-23T00:58:59.718Z,98977.70
2019-02-23T01:01:54.464Z,98970.93
2019-02-23T01:04:50.941Z,98979.72
2019-02-23T01:07:46.749Z,98972.21
2019-02-23T01:10:58.397Z,98985.00
2019-02-23T01:13:51.817Z,98984.91
2019-02-23T01:16:47.722Z,98990.57
2019-02-23T01:19:47.691Z,98986.81
2019-02-23T01:22:39.686Z,98986.45
2019-02-23T01:25:35.423Z,98996.19
2019-02-23T01:28:32.059Z,98994.34
2019-02-23T01:31:27.469Z,98991.58
2019-02-23T01:34:23.911Z,98990.08
2019-02-23T01:37:19.651Z,98988.60
2019-02-23T01:40:16.943Z,98992.63
2019-02-23T01:43:12.916Z,98999.36
2019-02-23T01:46:09.385Z,98998.88
2019-02-23T01:49:04.873Z,99006.90
2019-02-23T01:52:00.905Z,99004.42
2019-02-23T01:54:56.214Z,99012.91
2019-02-23T01:57:53.052Z,99015.42
2019-02-23T02:00:49.773Z,99025.81
2019-02-23T02:03:45.051Z,99010.44
2019-02-23T02:06:41.633Z,99017.58
2019-02-23T02:09:38.141Z,99021.70
2019-02-23T02:12:34.666Z,99009.45
2019-02-23T02:15:31.247Z,99005.70
2019-02-23T02:18:27.964Z,99001.20
2019-02-23T02:21:24.109Z,99010.45
2019-02-23T02:24:20.492Z,99012.21
2019-02-23T02:27:15.306Z,99028.95
2019-02-23T02:30:13.022Z,99021.45
2019-02-23T02:33:09.633Z,99029.83
2019-02-23T02:36:06.119Z,99031.45
2019-02-23T02:39:01.678Z,99031.47
2019-02-23T02:41:59.953Z,99026.47
2019-02-23T02:44:57.537Z,99021.72
2019-02-23T02:47:53.956Z,99023.34
2019-02-23T02:50:51.543Z,99027.22
2019-02-23T02:53:47.525Z,99021.73
2019-02-23T02:56:50.340Z,99017.86
2019-02-23T02:59:51.586Z,99030.59
2019-02-23T03:02:48.740Z,99019.48
2019-02-23T03:05:44.196Z,99013.97
2019-02-23T03:08:40.725Z,99025.73
2019-02-23T03:11:38.416Z,99025.73
2019-02-23T03:14:36.097Z,99030.97
2019-02-23T03:17:31.800Z,99025.83
2019-02-23T03:20:36.180Z,99035.20
2019-02-23T03:23:28.730Z,99035.94
2019-02-23T03:26:25.229Z,99034.08
2019-02-23T03:29:19.838Z,99037.70
2019-02-23T03:32:16.825Z,99039.69
2019-02-23T03:35:12.242Z,99039.69
2019-02-23T03:38:08.958Z,99039.20
2019-02-23T03:41:05.698Z,99039.44
2019-02-23T03:44:02.335Z,99036.42
2019-02-23T03:46:59.012Z,99033.93
2019-02-23T03:49:55.489Z,99035.42
2019-02-23T03:52:51.126Z,99043.16
2019-02-23T03:55:48.354Z,99040.66
2019-02-23T03:58:43.819Z,99031.44
2019-02-23T04:01:41.112Z,99024.08
2019-02-23T04:04:37.120Z,99025.44
2019-02-23T04:07:32.625Z,99029.55
2019-02-23T04:10:29.052Z,99029.42
2019-02-23T04:13:25.189Z,99024.44
2019-02-23T04:16:21.312Z,99012.72
2019-02-23T04:19:16.412Z,99009.95
2019-02-23T04:22:13.670Z,99011.47
2019-02-23T04:25:09.403Z,99013.97
2019-02-23T04:28:05.870Z,99003.72
2019-02-23T04:31:01.304Z,99011.47
2019-02-23T04:33:57.748Z,98997.72
2019-02-23T04:36:55.556Z,99003.95
2019-02-23T04:39:51.043Z,99010.70
2019-02-23T04:42:47.651Z,99004.96
2019-02-23T04:45:43.032Z,99013.93
2019-02-23T04:48:40.812Z,99019.16
2019-02-23T04:51:36.328Z,99017.67
2019-02-23T04:54:33.051Z,99016.42
2019-02-23T04:57:28.534Z,99022.42
2019-02-23T05:00:24.989Z,99025.28
2019-02-23T05:03:20.809Z,99033.40
2019-02-23T05:06:16.819Z,99037.87
2019-02-23T05:09:19.560Z,99037.25
2019-02-23T05:12:18.909Z,99035.23
2019-02-23T05:15:14.439Z,99043.80
2019-02-23T05:18:10.975Z,99044.07
2019-02-23T05:21:06.521Z,99043.17
2019-02-23T05:24:04.036Z,99047.03
2019-02-23T05:26:59.610Z,99036.77
2019-02-23T05:29:56.402Z,99028.80
2019-02-23T05:32:59.303Z,99030.54
2019-02-23T05:35:56.062Z,99027.56
2019-02-23T05:38:51.303Z,99043.75
2019-02-23T05:41:47.055Z,99041.26
2019-02-23T05:44:42.815Z,99039.48
2019-02-23T05:47:39.543Z,99029.28
2019-02-23T05:50:37.493Z,99018.83
2019-02-23T05:53:34.044Z,99024.53
2019-02-23T05:56:30.548Z,99030.86
2019-02-23T05:59:26.941Z,99042.17
2019-02-23T06:02:22.598Z,99043.78
2019-02-23T06:05:18.445Z,99043.41
2019-02-23T06:08:14.137Z,99042.64
2019-02-23T06:11:10.794Z,99039.14
2019-02-23T06:14:08.384Z,99058.35
2019-02-23T06:17:04.802Z,99058.35
2019-02-23T06:20:00.319Z,99058.06
2019-02-23T06:22:56.606Z,99050.46
2019-02-23T06:25:51.432Z,99040.49
2019-02-23T06:28:47.456Z,99036.14
2019-02-23T06:31:43.038Z,99042.16
2019-02-23T06:34:40.780Z,99058.35
2019-02-23T06:37:36.314Z,99073.30
2019-02-23T06:40:33.018Z,99076.00
2019-02-23T06:43:29.532Z,99072.50
2019-02-23T06:46:26.082Z,99085.23
2019-02-23T06:49:21.579Z,99088.77
2019-02-23T06:52:18.744Z,99091.72
2019-02-23T06:55:15.437Z,99096.69
2019-02-23T06:58:13.136Z,99094.48
2019-02-23T07:01:08.887Z,99092.95
2019-02-23T07:04:06.375Z,99083.73
2019-02-23T07:07:01.859Z,99066.57
2019-02-23T07:09:58.428Z,99063.72
2019-02-23T07:12:54.978Z,99049.90
2019-02-23T07:15:50.752Z,99047.71
2019-02-23T07:18:46.268Z,99038.23
2019-02-23T07:21:42.762Z,99020.56
2019-02-23T07:24:44.138Z,99030.04
2019-02-23T07:27:44.292Z,99021.08
2019-02-23T07:30:40.069Z,99021.09
2019-02-23T07:33:36.755Z,99026.58
2019-02-23T07:36:32.959Z,99032.09
2019-02-23T07:39:28.015Z,99058.05
2019-02-23T07:45:15.238Z,99082.74
2019-02-23T07:48:11.886Z,99081.88
2019-02-23T07:51:07.461Z,99080.51
2019-02-23T07:54:04.961Z,99096.02
2019-02-23T07:57:00.761Z,99094.94
2019-02-23T07:59:57.290Z,99093.05
2019-02-23T08:02:52.736Z,99079.09
2019-02-23T08:05:49.329Z,99073.38
2019-02-23T08:08:45.091Z,99066.61
2019-02-23T08:11:41.563Z,99080.22
2019-02-23T08:14:39.038Z,99080.62
2019-02-23T08:17:35.701Z,99078.61
2019-02-23T08:20:31.977Z,99093.10
2019-02-23T08:23:27.691Z,99097.61
2019-02-23T08:26:25.602Z,99093.10
2019-02-23T08:29:20.460Z,99086.13
2019-02-23T08:32:17.203Z,99081.90
2019-02-23T08:35:13.716Z,99105.13
2019-02-23T08:38:10.466Z,99101.14
2019-02-23T08:41:06.116Z,99088.77
2019-02-23T08:44:02.933Z,99091.12
2019-02-23T08:46:59.514Z,99096.88
2019-02-23T08:49:56.913Z,99090.14
2019-02-23T08:52:53.924Z,99085.89
2019-02-23T08:55:58.196Z,99092.86
2019-02-23T08:58:59.191Z,99090.62
2019-02-23T09:01:54.922Z,99087.62
2019-02-23T09:04:51.815Z,99077.84
2019-02-23T09:07:47.376Z,99099.80
2019-02-23T09:10:44.100Z,99097.77
2019-02-23T09:13:40.882Z,99094.64
2019-02-23T09:16:37.258Z,99098.76
2019-02-23T09:19:32.583Z,99106.25
2019-02-23T09:22:29.461Z,99106.45
2019-02-23T09:25:25.324Z,99112.92
2019-02-23T09:28:21.896Z,99111.64
2019-02-23T09:31:17.417Z,99112.13
2019-02-23T09:34:15.070Z,99121.88
2019-02-23T09:37:17.864Z,99118.81
2019-02-23T09:40:14.519Z,99121.80
2019-02-23T09:43:10.009Z,99124.08
2019-02-23T09:46:07.730Z,99124.78
2019-02-23T09:49:04.225Z,99127.77
2019-02-23T09:52:01.047Z,99134.11
2019-02-23T09:54:56.617Z,99129.95
2019-02-23T09:57:53.255Z,99115.44
2019-02-23T10:00:48.287Z,99106.64
2019-02-23T10:03:46.337Z,99096.06
2019-02-23T10:06:43.071Z,99102.06
2019-02-23T10:09:39.900Z,99116.13
2019-02-23T10:12:37.332Z,99110.66
2019-02-23T10:15:34.166Z,99103.66
2019-02-23T10:18:29.301Z,99107.06
2019-02-23T10:21:25.831Z,99114.52
2019-02-23T10:24:21.230Z,99116.04
2019-02-23T10:27:18.825Z,99111.70
2019-02-23T10:30:14.663Z,99113.23
2019-02-23T10:33:11.224Z,99114.88
2019-02-23T10:36:06.920Z,99114.00
2019-02-23T10:39:03.315Z,99121.20
2019-02-23T10:41:59.020Z,99130.44
2019-02-23T10:44:55.263Z,99116.86
2019-02-23T10:47:50.657Z,99111.31
2019-02-23T10:50:47.177Z,99116.43
2019-02-23T10:53:42.990Z,99121.55
2019-02-23T10:56:39.537Z,99120.81
2019-02-23T10:59:37.307Z,99111.44
2019-02-23T11:02:34.890Z,99104.89
2019-02-23T11:05:30.437Z,99097.03
2019-02-23T11:08:28.951Z,99086.42
2019-02-23T11:11:25.268Z,99073.77
2019-02-23T11:14:20.687Z,99067.67
2019-02-23T11:17:16.155Z,99060.34
2019-02-23T11:20:15.461Z,99045.28
2019-02-23T11:23:11.370Z,99034.09
2019-02-23T11:26:08.177Z,99033.81
2019-02-23T11:29:04.519Z,99038.48
2019-02-23T11:32:00.451Z,99040.11
2019-02-23T11:34:56.198Z,99037.88
2019-02-23T11:37:53.991Z,99039.47
2019-02-23T11:40:49.527Z,99036.61
2019-02-23T11:43:46.273Z,99032.00
2019-02-23T11:46:59.211Z,99040.02
2019-02-23T11:49:38.665Z,99037.78
2019-02-23T11:52:34.179Z,99041.13
2019-02-23T11:55:30.719Z,99046.75
2019-02-23T11:58:26.346Z,99051.04
2019-02-23T12:01:24.741Z,99052.49
2019-02-23T12:04:20.138Z,99049.00
2019-02-23T12:07:18.179Z,99048.25
2019-02-23T12:10:14.097Z,99052.39
2019-02-23T12:13:11.783Z,99048.34
2019-02-23T12:16:07.221Z,99042.30
2019-02-23T12:19:03.567Z,99035.43
2019-02-23T12:21:59.128Z,99023.75
2019-02-23T12:24:55.694Z,99018.45
2019-02-23T12:27:50.311Z,99021.56
2019-02-23T12:30:46.798Z,99000.51
2019-02-23T12:33:42.265Z,99000.98
2019-02-23T12:36:38.684Z,98991.14
2019-02-23T12:39:36.503Z,98977.19
2019-02-23T12:42:32.717Z,98975.64
2019-02-23T12:45:29.128Z,98970.23
2019-02-23T12:48:26.008Z,98973.44
2019-02-23T12:51:21.090Z,98973.44
2019-02-23T12:54:18.499Z,98975.67
2019-02-23T12:57:15.448Z,98974.51
2019-02-23T13:00:11.932Z,98972.18
2019-02-23T13:03:09.444Z,98969.77
2019-02-23T13:06:05.940Z,98961.92
2019-02-23T13:09:25.280Z,98969.29
2019-02-23T13:12:32.931Z,98961.81
2019-02-23T13:15:47.944Z,98952.44
2019-02-23T13:19:06.808Z,98959.70
2019-02-23T13:22:30.816Z,98955.23
2019-02-23T13:25:47.682Z,98953.02
2019-02-23T13:29:02.218Z,98944.70
2019-02-23T13:32:25.336Z,98950.67
2019-02-23T13:35:35.953Z,98942.37
2019-02-23T13:39:03.697Z,98954.55
2019-02-23T13:42:14.052Z,98943.05
2019-02-23T13:45:42.427Z,98936.94
2019-02-23T13:49:24.709Z,98934.60
2019-02-23T13:53:05.130Z,98930.83
2019-02-23T13:56:31.173Z,98933.70
2019-02-23T14:00:10.446Z,98923.55
2019-02-23T14:03:33.525Z,98924.34
2019-02-23T14:06:55.846Z,98920.72
2019-02-23T14:10:16.337Z,98918.28
2019-02-23T14:13:31.518Z,98912.61
2019-02-23T14:17:09.501Z,98906.73
2019-02-23T14:20:26.302Z,98905.55
2019-02-23T14:23:54.143Z,98896.74
2019-02-23T14:27:33.281Z,98887.44
2019-02-23T14:30:58.958Z,98877.48
2019-02-23T14:34:16.617Z,98877.48
2019-02-23T14:37:40.932Z,98871.55
2019-02-23T14:40:54.238Z,98876.58
2019-02-23T14:44:06.900Z,98877.84
2019-02-23T14:47:39.539Z,98878.97
2019-02-23T14:51:05.234Z,98869.31
2019-02-23T14:54:39.664Z,98876.45
2019-02-23T14:58:07.373Z,98876.66
2019-02-23T15:01:44.763Z,98874.86
2019-02-23T15:05:10.436Z,98877.53
2019-02-23T15:08:40.848Z,98871.28
2019-02-23T15:11:59.807Z,98880.36
2019-02-23T15:15:14.431Z,98867.03
2019-02-23T15:18:30.146Z,98878.00
2019-02-23T15:21:49.955Z,98879.76
2019-02-23T15:25:20.784Z,98876.72
2019-02-23T15:28:38.305Z,98868.51
2019-02-23T15:32:12.774Z,98867.69
2019-02-23T15:35:28.145Z,98866.94
2019-02-23T15:38:47.784Z,98862.72
2019-02-23T15:42:28.289Z,98867.41
2019-02-23T15:45:37.917Z,98867.16
2019-02-23T15:49:12.389Z,98865.80
2019-02-23T15:52:08.023Z,98862.88
2019-02-23T15:55:04.252Z,98862.44
2019-02-23T15:57:59.687Z,98864.28
2019-02-23T16:00:56.464Z,98866.91
2019-02-23T16:03:53.593Z,98858.23
2019-02-23T16:06:50.232Z,98847.23
2019-02-23T16:09:47.046Z,98846.84
2019-02-23T16:12:43.860Z,98851.30
2019-02-23T16:15:41.606Z,98854.02
2019-02-23T16:18:37.039Z,98856.41
2019-02-23T16:21:33.870Z,98853.62
2019-02-23T16:24:29.735Z,98857.18
2019-02-23T16:27:27.051Z,98875.23
2019-02-23T16:30:22.964Z,98884.58
2019-02-23T16:33:19.537Z,98887.42
2019-02-23T16:36:15.099Z,98894.84
2019-02-23T16:39:11.444Z,98902.32
2019-02-23T16:42:07.257Z,98903.23
2019-02-23T16:45:03.953Z,98904.17
2019-02-23T16:47:59.690Z,98900.80
2019-02-23T16:50:55.929Z,98909.45
2019-02-23T16:53:51.690Z,98903.60
2019-02-23T16:56:48.262Z,98910.69
2019-02-23T16:59:43.832Z,98920.08
2019-02-23T17:02:41.414Z,98916.85
2019-02-23T17:05:37.237Z,98917.70
2019-02-23T17:08:33.112Z,98924.77
2019-02-23T17:11:29.101Z,98926.56
2019-02-23T17:14:25.114Z,98935.77
2019-02-23T17:17:21.373Z,98934.47
2019-02-23T17:20:17.960Z,98944.34
2019-02-23T17:23:13.495Z,98936.27
2019-02-23T17:26:10.008Z,98943.70
2019-02-23T17:29:05.011Z,98939.73
2019-02-23T17:32:01.474Z,98941.04
2019-02-23T17:34:57.099Z,98940.98
2019-02-23T17:37:53.736Z,98946.41
2019-02-23T17:40:49.224Z,98942.04
2019-02-23T17:43:46.947Z,98951.73
2019-02-23T17:46:43.289Z,98954.41
2019-02-23T17:49:39.856Z,98960.60
2019-02-23T17:52:36.329Z,98962.89
2019-02-23T17:55:33.025Z,98956.27
2019-02-23T17:58:29.337Z,98963.89
2019-02-23T18:01:25.565Z,98968.97
2019-02-23T18:04:20.916Z,98973.25
2019-02-23T18:07:17.440Z,98967.25
2019-02-23T18:10:13.722Z,98964.53
2019-02-23T18:13:12.005Z,98964.94
2019-02-23T18:16:08.009Z,98968.84
2019-02-23T18:19:04.589Z,98969.86
2019-02-23T18:21:59.540Z,98977.88
2019-02-23T18:24:55.688Z,98973.69
2019-02-23T18:27:51.165Z,98966.92
2019-02-23T18:30:47.700Z,98966.70
2019-02-23T18:33:44.299Z,98964.94
2019-02-23T18:36:40.843Z,98966.98
2019-02-23T18:39:36.575Z,98970.88
2019-02-23T18:42:33.220Z,98974.00
2019-02-23T18:45:28.908Z,98971.80
2019-02-23T18:48:25.314Z,98968.07
2019-02-23T18:51:21.880Z,98964.46
2019-02-23T18:54:18.784Z,98971.33
2019-02-23T18:57:15.295Z,98972.36
2019-02-23T19:00:11.055Z,98974.63
2019-02-23T19:03:07.706Z,98979.48
2019-02-23T19:06:03.204Z,98985.36
2019-02-23T19:08:59.135Z,98977.86
2019-02-23T19:11:55.976Z,98973.37
2019-02-23T19:14:54.561Z,98977.14
2019-02-23T19:17:49.958Z,98979.03
2019-02-23T19:20:46.347Z,98973.45
2019-02-23T19:23:42.879Z,98972.20
2019-02-23T19:26:39.539Z,98971.34
2019-02-23T19:29:35.041Z,98970.23
2019-02-23T19:32:31.287Z,98972.47
2019-02-23T19:35:27.268Z,98967.51
2019-02-23T19:38:24.236Z,98970.50
2019-02-23T19:41:20.096Z,98968.27
2019-02-23T19:44:17.710Z,98960.55
2019-02-23T19:47:17.246Z,98955.78
2019-02-23T19:50:16.634Z,98966.02
2019-02-23T19:53:12.357Z,98964.54
2019-02-23T19:56:09.948Z,98966.55
2019-02-23T19:59:06.344Z,98968.18
2019-02-23T20:02:02.050Z,98965.55
2019-02-23T20:04:59.869Z,98967.19
2019-02-23T20:07:56.094Z,98966.07
2019-02-23T20:10:52.748Z,98968.82
2019-02-23T20:13:49.429Z,98974.06
2019-02-23T20:16:47.162Z,98975.28
2019-02-23T20:19:42.898Z,98978.54
2019-02-23T20:22:39.885Z,98976.94
2019-02-23T20:25:36.020Z,98980.67
2019-02-23T20:28:31.853Z,98977.18
2019-02-23T20:31:26.716Z,98977.55
2019-02-23T20:34:24.283Z,98963.55
2019-02-23T20:37:21.137Z,98965.81
2019-02-23T20:40:16.958Z,98951.84
2019-02-23T20:43:13.748Z,98950.57
2019-02-23T20:46:10.470Z,98945.58
2019-02-23T20:49:07.339Z,98954.83
2019-02-23T20:52:03.202Z,98964.08
2019-02-23T20:55:01.266Z,98962.80
2019-02-23T20:57:55.981Z,98974.02
2019-02-23T21:00:52.819Z,98971.77
2019-02-23T21:03:49.717Z,98975.02
2019-02-23T21:06:46.290Z,98980.14
2019-02-23T21:09:42.906Z,98977.52
2019-02-23T21:12:38.255Z,98964.53
2019-02-23T21:15:36.071Z,98965.78
2019-02-23T21:18:32.182Z,98964.77
2019-02-23T21:21:28.201Z,98968.64
2019-02-23T21:24:23.795Z,98973.98
2019-02-23T21:27:20.610Z,98966.27
2019-02-23T21:30:16.253Z,98969.27
2019-02-23T21:33:12.962Z,98971.77
2019-02-23T21:36:09.949Z,98984.96
2019-02-23T21:39:06.157Z,98980.48
2019-02-23T21:42:01.488Z,98975.50
2019-02-23T21:44:57.983Z,98976.75
2019-02-23T21:47:53.100Z,98980.33
2019-02-23T21:50:51.030Z,98975.22
2019-02-23T21:53:46.712Z,98971.72
2019-02-23T21:56:44.488Z,98975.70
2019-02-23T21:59:40.011Z,98972.23
2019-02-23T22:02:36.946Z,98978.84
2019-02-23T22:05:31.481Z,98974.97
2019-02-23T22:08:27.496Z,98972.08
2019-02-23T22:11:23.131Z,98979.44
2019-02-23T22:14:19.691Z,98970.47
2019-02-23T22:17:17.228Z,98962.22
2019-02-23T22:20:14.067Z,98967.48
2019-02-23T22:23:12.077Z,98966.73
2019-02-23T22:26:08.691Z,98970.70
2019-02-23T22:29:05.238Z,98967.45
2019-02-23T22:32:00.508Z,98964.47
2019-02-23T22:34:57.071Z,98965.95
2019-02-23T22:37:53.414Z,98955.73
2019-02-23T22:40:50.145Z,98953.84
2019-02-23T22:43:47.092Z,98955.97
2019-02-23T22:46:45.636Z,98955.68
2019-02-23T22:49:41.285Z,98958.81
2019-02-23T22:52:38.019Z,98953.70
2019-02-23T22:55:33.770Z,98947.71
2019-02-23T22:58:30.800Z,98946.95
2019-02-23T23:01:27.242Z,98945.58
2019-02-23T23:04:22.960Z,98940.46
2019-02-23T23:07:20.515Z,98946.39
2019-02-23T23:10:17.240Z,98948.88
2019-02-23T23:13:13.631Z,98941.15
2019-02-23T23:16:10.112Z,98942.17
2019-02-23T23:19:06.653Z,98942.17
2019-02-23T23:22:03.210Z,98941.41
2019-02-23T23:24:59.016Z,98931.20
2019-02-23T23:27:55.825Z,98926.09
2019-02-23T23:30:52.401Z,98928.30
2019-02-23T23:33:48.142Z,98936.89
2019-02-23T23:36:44.885Z,98925.67
2019-02-23T23:39:41.436Z,98920.45
2019-02-23T23:42:36.989Z,98922.70
2019-02-23T23:45:33.472Z,98920.21
2019-02-23T23:48:30.036Z,98920.34
2019-02-23T23:51:26.536Z,98921.70
2019-02-23T23:54:22.075Z,98924.72
2019-02-23T23:57:19.627Z,98921.47
